Time;durP1;ratioP1;P1;durP2;ratioP2;P2;SDS_P1;SDS_P2;PMS_P1;PMS_P2;Temp;Humidity;BMP_temperature;BMP_pressure;BME280_temperature;BME280_humidity;BME280_pressure;Samples;Min_cycle;Max_cycle;Signal;HPM_P1;HPM_P2
2022/09/07 00:01:12;;;;;;;1.60;0.90;;;;;;;25.70;36.57;101342.06;4183473;28;20029;-61
2022/09/07 00:03:13;;;;;;;3.63;1.02;;;;;;;25.68;36.20;101341.53;4183462;28;20037;-61
2022/09/07 00:05:14;;;;;;;2.97;1.02;;;;;;;25.76;35.90;101349.28;4183590;28;20040;-61
2022/09/07 00:07:16;;;;;;;1.50;1.00;;;;;;;25.73;35.99;101349.88;4183521;28;20095;-61
2022/09/07 00:09:17;;;;;;;1.48;0.80;;;;;;;25.68;35.65;101349.94;4183460;28;20044;-60
2022/09/07 00:11:19;;;;;;;1.08;0.80;;;;;;;25.70;35.74;101355.25;4183196;28;20138;-60
2022/09/07 00:13:22;;;;;;;1.73;0.80;;;;;;;25.69;35.52;101357.22;4183481;28;20558;-60
2022/09/07 00:15:23;;;;;;;2.20;0.73;;;;;;;25.68;35.80;101363.97;4183477;28;20040;-61
2022/09/07 00:17:24;;;;;;;0.98;0.77;;;;;;;25.66;35.39;101362.59;4197902;28;20098;-60
2022/09/07 00:19:28;;;;;;;1.15;0.85;;;;;;;25.63;35.79;101347.22;4197096;28;20040;-61
2022/09/07 00:21:30;;;;;;;2.50;0.90;;;;;;;25.69;35.51;101359.19;4198931;28;20070;-61
2022/09/07 00:23:36;;;;;;;1.33;0.80;;;;;;;25.68;35.62;101363.13;4207141;28;20040;-60
2022/09/07 00:25:38;;;;;;;3.08;0.75;;;;;;;25.66;35.55;101369.06;4214277;28;20082;-62
2022/09/07 00:27:40;;;;;;;2.40;0.80;;;;;;;25.67;36.28;101364.28;4214416;28;20044;-60
2022/09/07 00:29:41;;;;;;;2.25;0.73;;;;;;;25.67;36.10;101367.91;4205998;28;20450;-60
2022/09/07 00:31:42;;;;;;;0.80;0.60;;;;;;;25.64;36.01;101362.91;4199103;28;20073;-60
2022/09/07 00:33:44;;;;;;;1.13;0.90;;;;;;;25.68;35.85;101377.97;4213356;28;20043;-60
2022/09/07 00:35:48;;;;;;;2.22;0.80;;;;;;;25.66;35.92;101380.25;4216441;28;20414;-60
2022/09/07 00:37:55;;;;;;;2.20;1.20;;;;;;;25.65;35.86;101375.75;4211627;28;20437;-61
2022/09/07 00:39:57;;;;;;;1.67;0.70;;;;;;;25.64;35.91;101382.50;4216759;28;20044;-62
2022/09/07 00:41:58;;;;;;;1.45;0.63;;;;;;;22.96;35.92;100962.03;4213267;28;20437;-61
2022/09/07 00:44:38;;;;;;;1.33;0.80;;;;;;;25.50;35.97;101364.78;4216410;28;20441;-61
2022/09/07 00:46:39;;;;;;;2.90;0.73;;;;;;;25.64;35.68;101388.13;4190622;28;20044;-60
2022/09/07 00:48:52;;;;;;;1.60;0.80;;;;;;;25.61;35.94;101391.53;4190005;28;20447;-61
2022/09/07 00:51:01;;;;;;;1.27;0.82;;;;;;;25.61;36.15;101391.53;4182575;28;20033;-61
2022/09/07 00:53:27;;;;;;;4.75;0.60;;;;;;;25.38;36.74;101358.78;4193985;28;20045;-61
2022/09/07 00:55:34;;;;;;;1.23;0.77;;;;;;;25.63;36.33;101391.25;4203372;28;20110;-62
2022/09/07 00:57:45;;;;;;;1.55;0.80;;;;;;;25.58;36.27;101381.75;4198619;28;20044;-61
2022/09/07 00:59:50;;;;;;;1.45;0.80;;;;;;;25.51;36.18;101377.66;4200941;28;20544;-61
2022/09/07 01:01:54;;;;;;;1.48;0.88;;;;;;;25.62;36.16;101398.81;4202670;28;20487;-61
2022/09/07 01:03:58;;;;;;;2.22;0.85;;;;;;;25.63;36.42;101396.84;4204690;28;20098;-61
2022/09/07 01:06:16;;;;;;;1.00;0.70;;;;;;;25.59;36.02;101394.63;4190654;28;20033;-62
2022/09/07 01:08:18;;;;;;;5.70;0.93;;;;;;;25.54;36.31;101391.06;4205583;28;20101;-62
2022/09/07 01:10:23;;;;;;;4.57;1.00;;;;;;;25.58;36.22;101398.56;4213398;28;20036;-62
2022/09/07 01:12:25;;;;;;;2.55;1.10;;;;;;;25.61;36.22;101399.94;4215696;28;20066;-64
2022/09/07 01:14:47;;;;;;;3.65;0.95;;;;;;;25.46;36.42;101383.34;4215691;28;20040;-62
2022/09/07 01:17:11;;;;;;;5.50;0.90;;;;;;;25.62;36.61;101407.22;4185613;28;20141;-61
2022/09/07 01:19:42;;;;;;;3.97;0.88;;;;;;;25.65;36.63;101400.16;4214794;28;20036;-62
2022/09/07 01:21:58;;;;;;;5.00;0.73;;;;;;;25.67;37.34;101395.94;4182048;28;20419;-62
2022/09/07 01:24:21;;;;;;;3.22;0.93;;;;;;;25.69;36.50;101390.84;4181484;28;20110;-61
2022/09/07 01:26:43;;;;;;;4.32;0.88;;;;;;;25.70;36.23;101383.25;4192130;28;20045;-62
2022/09/07 01:28:50;;;;;;;3.85;0.90;;;;;;;25.73;36.02;101382.66;4197099;28;20105;-61
2022/09/07 01:31:08;;;;;;;3.85;1.00;;;;;;;25.64;36.26;101368.50;4213707;28;20036;-61
2022/09/07 01:33:27;;;;;;;3.90;1.00;;;;;;;25.69;36.12;101376.84;4212905;28;20512;-61
2022/09/07 01:35:54;;;;;;;3.67;0.80;;;;;;;25.65;35.88;101369.34;4215390;28;20040;-61
2022/09/07 01:38:09;;;;;;;3.50;1.00;;;;;;;25.69;36.11;101376.84;4209356;28;20115;-61
2022/09/07 01:40:10;;;;;;;;;;;;;;;25.68;35.81;101374.34;4193381;28;20037;-61
2022/09/07 01:42:14;;;;;;;1.83;0.70;;;;;;;25.69;35.67;101371.22;4197853;28;19927;-61
2022/09/07 01:44:41;;;;;;;4.00;0.95;;;;;;;25.68;35.81;101375.16;4192444;28;20093;-60
2022/09/07 01:46:56;;;;;;;1.88;1.00;;;;;;;25.69;36.24;101373.19;4185707;28;20040;-60
2022/09/07 01:49:24;;;;;;;6.68;1.05;;;;;;;25.69;36.02;101382.44;4185396;28;20098;-61
2022/09/07 01:51:32;;;;;;;2.47;0.98;;;;;;;25.68;36.13;101383.59;4155103;28;20476;-61
2022/09/07 01:53:36;;;;;;;2.70;0.77;;;;;;;25.67;35.87;101373.50;4185384;28;20090;-61
2022/09/07 01:55:57;;;;;;;1.90;1.10;;;;;;;25.67;36.03;101379.13;4208748;28;20102;-61
2022/09/07 01:58:10;;;;;;;2.22;0.80;;;;;;;25.62;35.55;101376.38;4193917;28;20040;-61
2022/09/07 02:00:14;;;;;;;5.25;1.15;;;;;;;25.64;35.90;101388.13;4187078;28;20045;-61
2022/09/07 02:02:22;;;;;;;0.95;0.85;;;;;;;25.66;36.78;101382.19;4194364;28;20044;-62
2022/09/07 02:04:38;;;;;;;2.78;1.08;;;;;;;25.66;36.20;101376.59;4193622;28;20117;-60
2022/09/07 02:07:23;;;;;;;3.70;1.10;;;;;;;25.65;36.18;101378.56;4207551;28;20036;-61
2022/09/07 02:09:31;;;;;;;2.65;1.25;;;;;;;25.69;36.00;101376.84;4188811;28;20037;-61
2022/09/07 02:11:37;;;;;;;1.80;0.82;;;;;;;25.62;35.68;101370.78;4184535;28;20041;-61
2022/09/07 02:13:53;;;;;;;2.30;0.95;;;;;;;25.65;35.93;101386.16;4187494;28;20082;-62
2022/09/07 02:16:02;;;;;;;0.95;0.80;;;;;;;25.65;36.65;101391.75;4194367;28;20048;-61
2022/09/07 02:18:06;;;;;;;4.97;1.13;;;;;;;25.67;36.30;101395.94;4188605;28;20483;-61
2022/09/07 02:20:30;;;;;;;3.28;1.00;;;;;;;25.63;36.43;101394.88;4204108;28;20179;-62
2022/09/07 02:22:38;;;;;;;2.80;0.85;;;;;;;25.66;36.42;101394.28;4181375;28;20091;-61
2022/09/07 02:24:44;;;;;;;1.85;1.00;;;;;;;25.65;36.25;101386.97;4189141;28;20045;-62
2022/09/07 02:26:48;;;;;;;2.05;0.85;;;;;;;25.43;36.54;101355.91;4202437;28;20040;-61
2022/09/07 02:28:50;;;;;;;5.20;1.75;;;;;;;25.65;36.90;101392.59;4209389;28;20491;-60
2022/09/07 02:30:54;;;;;;;3.03;0.77;;;;;;;25.66;36.91;101399.88;4209107;28;20044;-60
2022/09/07 02:32:55;;;;;;;3.17;0.90;;;;;;;25.67;36.54;101407.16;4213380;28;20422;-60
2022/09/07 02:34:56;;;;;;;2.22;1.00;;;;;;;25.65;36.19;101405.75;4211918;28;20036;-60
2022/09/07 02:37:01;;;;;;;3.15;1.40;;;;;;;25.59;36.16;101396.59;4201021;28;20036;-61
2022/09/07 02:39:03;;;;;;;2.70;1.45;;;;;;;25.63;36.79;101394.88;4188714;28;20069;-61
2022/09/07 02:41:05;;;;;;;3.05;1.00;;;;;;;25.52;37.06;101376.50;4201534;28;20040;-61
2022/09/07 02:43:09;;;;;;;4.03;0.85;;;;;;;25.64;36.79;101396.53;4190957;28;20045;-63
2022/09/07 02:45:12;;;;;;;1.85;0.98;;;;;;;25.40;36.54;101359.34;4207414;28;20117;-62
2022/09/07 02:47:28;;;;;;;3.13;1.15;;;;;;;25.63;36.46;101394.88;4181324;28;20095;-62
2022/09/07 02:50:04;;;;;;;1.88;1.23;;;;;;;25.59;36.43;101393.81;4197242;28;20417;-64
2022/09/07 02:52:13;;;;;;;;;;;;;;;25.63;37.05;101396.84;4170520;28;20040;-61
2022/09/07 02:54:50;;;;;;;1.15;1.00;;;;;;;25.69;37.18;101393.66;4188127;28;20261;-61
2022/09/07 02:57:24;;;;;;;1.17;1.08;;;;;;;25.69;36.80;101399.25;4181183;28;20094;-62
2022/09/07 02:59:43;;;;;;;1.65;1.10;;;;;;;25.64;36.50;101390.09;4199754;28;20510;-62
2022/09/07 03:02:11;;;;;;;1.73;1.20;;;;;;;25.67;36.61;101395.94;4213573;28;20105;-62
2022/09/07 03:04:50;;;;;;;2.33;1.25;;;;;;;25.65;37.49;101392.59;4211835;28;20040;-62
2022/09/07 03:07:02;;;;;;;3.25;1.00;;;;;;;25.69;37.06;101392.81;4189256;28;20036;-62
2022/09/07 03:09:15;;;;;;;2.10;1.08;;;;;;;25.66;36.78;101388.66;4211757;28;20036;-62
2022/09/07 03:11:17;;;;;;;1.48;1.10;;;;;;;25.67;36.79;101389.50;4190567;28;20028;-62
2022/09/07 03:13:24;;;;;;;1.23;1.00;;;;;;;25.65;37.02;101392.59;4195421;28;20040;-62
2022/09/07 03:15:28;;;;;;;2.95;1.00;;;;;;;25.64;37.05;101393.72;4211126;28;20117;-62
2022/09/07 03:17:29;;;;;;;1.73;1.00;;;;;;;25.65;37.56;101386.97;4213480;28;20036;-62
2022/09/07 03:19:31;;;;;;;1.35;1.17;;;;;;;25.67;37.41;101384.72;4211330;28;20106;-62
2022/09/07 03:21:32;;;;;;;2.97;1.10;;;;;;;25.67;37.25;101395.09;4192527;28;20048;-62
2022/09/07 03:23:34;;;;;;;1.42;1.10;;;;;;;25.65;36.98;101389.78;4182746;28;20029;-62
2022/09/07 03:25:38;;;;;;;0.85;0.85;;;;;;;25.64;36.70;101390.91;4213761;28;20040;-62
2022/09/07 03:27:42;;;;;;;1.27;0.93;;;;;;;25.63;37.22;101389.25;4195172;28;20045;-62
2022/09/07 03:29:44;;;;;;;1.40;0.80;;;;;;;25.62;37.52;101387.59;4185417;28;20036;-62
2022/09/07 03:31:45;;;;;;;4.18;1.27;;;;;;;25.65;37.16;101386.97;4180663;28;20098;-63
2022/09/07 03:33:47;;;;;;;2.53;1.25;;;;;;;25.65;37.27;101386.16;4180042;28;20037;-62
2022/09/07 03:36:01;;;;;;;2.05;1.08;;;;;;;25.59;36.72;101377.81;4180751;28;20040;-61
2022/09/07 03:38:02;;;;;;;1.85;1.10;;;;;;;25.64;37.14;101388.13;4181164;28;20040;-61
2022/09/07 03:40:06;;;;;;;2.03;1.23;;;;;;;25.65;37.29;101398.19;4180070;28;20510;-62
2022/09/07 03:42:07;;;;;;;1.65;1.20;;;;;;;25.66;37.26;101385.88;4180253;28;20037;-61
2022/09/07 03:44:09;;;;;;;1.67;1.10;;;;;;;25.61;37.31;101374.69;4180836;28;20115;-61
2022/09/07 03:46:10;;;;;;;1.83;1.05;;;;;;;25.66;37.21;101382.19;4181017;28;20439;-62
2022/09/07 03:48:14;;;;;;;1.10;1.00;;;;;;;25.65;37.11;101378.56;4180685;28;20562;-62
2022/09/07 03:50:16;;;;;;;1.27;1.10;;;;;;;25.65;36.88;101374.94;4210447;28;20044;-61
2022/09/07 03:52:17;;;;;;;1.90;1.00;;;;;;;25.62;37.11;101376.38;4213345;28;20041;-61
2022/09/07 03:54:18;;;;;;;2.88;1.08;;;;;;;25.65;37.83;101377.75;4198610;28;20075;-62
2022/09/07 03:56:25;;;;;;;1.58;1.05;;;;;;;25.65;36.97;101378.56;4180619;28;20045;-62
2022/09/07 03:58:31;;;;;;;3.08;1.10;;;;;;;25.63;36.96;101360.41;4179804;28;20502;-61
2022/09/07 04:00:33;;;;;;;1.67;0.95;;;;;;;25.66;36.90;101383.06;4186870;28;20122;-61
2022/09/07 04:02:34;;;;;;;1.27;1.17;;;;;;;25.65;36.88;101380.53;4192324;28;20129;-61
2022/09/07 04:04:35;;;;;;;1.65;1.13;;;;;;;25.63;36.92;101377.22;4185985;28;20037;-63
2022/09/07 04:06:37;;;;;;;1.85;1.20;;;;;;;25.58;37.04;101375.31;4197777;28;20094;-61
2022/09/07 04:08:48;;;;;;;1.23;0.82;;;;;;;25.59;37.94;101375.00;4199887;28;20036;-62
2022/09/07 04:10:54;;;;;;;1.35;1.05;;;;;;;25.62;37.35;101376.38;4199560;28;20427;-61
2022/09/07 04:12:55;;;;;;;2.72;1.10;;;;;;;25.48;37.20;101353.91;4200032;28;20557;-61
2022/09/07 04:14:56;;;;;;;1.63;0.93;;;;;;;25.63;36.80;101378.06;4203484;28;20102;-61
2022/09/07 04:16:58;;;;;;;1.73;1.00;;;;;;;25.62;36.87;101378.38;4201457;28;20102;-61
2022/09/07 04:18:59;;;;;;;2.15;1.20;;;;;;;25.60;36.76;101376.69;4204729;28;20100;-61
2022/09/07 04:21:03;;;;;;;9.68;1.20;;;;;;;25.60;37.34;101373.03;4186721;28;20122;-61
2022/09/07 04:23:04;;;;;;;4.28;1.40;;;;;;;25.58;37.31;101367.75;4216621;28;20036;-61
2022/09/07 04:25:09;;;;;;;2.20;1.35;;;;;;;25.61;37.04;101371.91;4205238;28;20041;-61
2022/09/07 04:27:10;;;;;;;2.47;1.35;;;;;;;25.61;37.07;101377.50;4193655;28;20041;-61
2022/09/07 04:29:12;;;;;;;2.42;1.33;;;;;;;25.59;36.98;101372.22;4206397;28;20108;-61
2022/09/07 04:31:15;;;;;;;5.22;1.20;;;;;;;25.59;37.20;101375.00;4206654;28;20078;-61
2022/09/07 04:33:16;;;;;;;3.50;1.17;;;;;;;25.60;36.80;101375.84;4199751;28;20366;-63
2022/09/07 04:35:17;;;;;;;5.43;1.30;;;;;;;25.59;37.04;101377.00;4198421;28;20102;-62
2022/09/07 04:37:18;;;;;;;4.18;1.20;;;;;;;25.58;36.97;101375.31;4212765;28;20475;-62
2022/09/07 04:39:20;;;;;;;4.75;1.55;;;;;;;25.58;37.68;101380.94;4193288;28;20045;-61
2022/09/07 04:41:22;;;;;;;5.35;1.23;;;;;;;25.59;37.24;101379.78;4195185;28;20040;-62
2022/09/07 04:43:23;;;;;;;5.78;1.30;;;;;;;25.61;36.84;101380.31;4197322;28;20044;-62
2022/09/07 04:45:24;;;;;;;9.63;1.63;;;;;;;25.58;36.95;101381.75;4199419;28;20060;-62
2022/09/07 04:47:29;;;;;;;3.22;0.90;;;;;;;25.58;37.03;101380.94;4212523;28;20032;-61
2022/09/07 04:49:32;;;;;;;6.70;1.15;;;;;;;25.53;36.71;101379.03;4199338;28;20098;-62
2022/09/07 04:51:34;;;;;;;5.00;1.42;;;;;;;25.55;36.69;101382.34;4198385;28;20033;-62
2022/09/07 04:53:42;;;;;;;4.70;1.20;;;;;;;25.57;36.56;101379.28;4186676;28;20045;-62
2022/09/07 04:55:43;;;;;;;3.45;1.35;;;;;;;25.55;36.90;101375.91;4202025;28;20091;-61
2022/09/07 04:57:48;;;;;;;6.45;1.08;;;;;;;25.50;36.56;101373.19;4210388;28;20039;-61
2022/09/07 04:59:49;;;;;;;6.43;1.50;;;;;;;25.55;36.55;101381.53;4213174;28;20093;-62
2022/09/07 05:01:51;;;;;;;3.40;1.65;;;;;;;25.52;36.47;101370.91;4213309;28;20036;-62
2022/09/07 05:03:52;;;;;;;5.55;1.20;;;;;;;25.50;36.78;101367.59;4214657;28;20483;-61
2022/09/07 05:05:56;;;;;;;3.92;1.63;;;;;;;25.55;37.60;101378.72;4200472;28;20107;-62
2022/09/07 05:07:57;;;;;;;3.40;1.08;;;;;;;25.51;36.89;101370.09;4206801;28;20420;-62
2022/09/07 05:10:01;;;;;;;3.15;0.90;;;;;;;25.48;37.08;101361.47;4187700;28;20104;-62
2022/09/07 05:12:03;;;;;;;2.67;1.25;;;;;;;25.39;36.88;101343.66;4182647;28;20095;-61
2022/09/07 05:14:07;;;;;;;4.78;1.27;;;;;;;25.54;36.62;101357.44;4182537;28;20079;-61
2022/09/07 05:16:16;;;;;;;3.80;1.10;;;;;;;25.47;36.78;101345.78;4189823;28;20046;-61
2022/09/07 05:18:18;;;;;;;4.60;1.30;;;;;;;25.51;36.71;101358.88;4211463;28;20093;-62
2022/09/07 05:20:20;;;;;;;1.88;1.10;;;;;;;25.48;36.52;101353.06;4212493;28;20039;-62
2022/09/07 05:22:21;;;;;;;2.70;1.00;;;;;;;25.51;36.52;101353.28;4190226;28;20071;-61
2022/09/07 05:24:25;;;;;;;5.97;1.23;;;;;;;25.51;36.75;101360.84;4183316;28;20045;-60
2022/09/07 05:26:29;;;;;;;3.80;1.20;;;;;;;25.49;36.53;101355.56;4185883;28;20630;-61
2022/09/07 05:28:32;;;;;;;1.98;0.88;;;;;;;25.37;36.38;101331.91;4201273;28;20354;-62
2022/09/07 05:30:36;;;;;;;1.52;1.05;;;;;;;25.48;36.59;101403.50;4201020;28;20040;-61
2022/09/07 05:32:40;;;;;;;4.53;2.13;;;;;;;25.06;36.95;101284.69;4200497;28;20501;-61
2022/09/07 05:34:42;;;;;;;12.83;1.70;;;;;;;25.50;36.77;101351.59;4201376;28;20282;-61
2022/09/07 05:36:52;;;;;;;4.13;1.20;;;;;;;25.40;36.88;101334.13;4198367;28;20041;-61
2022/09/07 05:38:55;;;;;;;3.28;1.17;;;;;;;25.47;36.54;101346.59;4199093;28;20040;-61
2022/09/07 05:40:58;;;;;;;1.50;0.80;;;;;;;25.49;36.53;101358.34;4188716;28;20078;-61
2022/09/07 05:42:59;;;;;;;2.05;1.15;;;;;;;25.40;36.41;101339.72;4204569;28;20105;-61
2022/09/07 05:45:00;;;;;;;4.22;1.73;;;;;;;25.48;37.27;101350.25;4201738;28;20040;-61
2022/09/07 05:47:08;;;;;;;1.85;1.33;;;;;;;25.49;37.18;101360.31;4209580;28;20032;-61
2022/09/07 05:49:09;;;;;;;1.35;1.10;;;;;;;25.45;36.96;101342.44;4202745;28;20036;-61
2022/09/07 05:51:12;;;;;;;5.20;1.00;;;;;;;25.49;36.65;101346.31;4195259;28;20040;-61
2022/09/07 05:53:13;;;;;;;0.80;0.80;;;;;;;25.49;36.85;101343.50;4207186;28;20032;-61
2022/09/07 05:55:15;;;;;;;3.80;1.20;;;;;;;25.48;36.83;101353.06;4203289;28;20249;-61
2022/09/07 05:57:16;;;;;;;2.97;1.08;;;;;;;25.47;37.02;101351.38;4198081;28;20044;-61
2022/09/07 05:59:17;;;;;;;1.38;0.90;;;;;;;25.47;37.36;101348.56;4198402;28;20028;-61
2022/09/07 06:01:19;;;;;;;2.03;1.00;;;;;;;25.49;36.82;101355.56;4185353;28;20542;-61
2022/09/07 06:03:23;;;;;;;3.13;1.05;;;;;;;25.40;36.65;101336.94;4196664;28;20109;-61
2022/09/07 06:05:24;;;;;;;3.03;1.17;;;;;;;25.49;36.93;101360.31;4197913;28;20078;-61
2022/09/07 06:07:26;;;;;;;0.90;0.90;;;;;;;25.47;36.67;101356.97;4198124;28;20033;-61
2022/09/07 06:09:27;;;;;;;3.25;1.30;;;;;;;25.46;36.85;101367.34;4196333;28;20048;-61
2022/09/07 06:11:28;;;;;;;1.70;1.20;;;;;;;25.47;37.11;101359.78;4192248;28;20094;-62
2022/09/07 06:13:29;;;;;;;2.42;1.00;;;;;;;25.48;37.16;101358.66;4197316;28;20045;-61
2022/09/07 06:15:32;;;;;;;2.50;1.08;;;;;;;25.40;36.93;101351.75;4191500;28;20052;-60
2022/09/07 06:17:34;;;;;;;1.65;1.00;;;;;;;25.29;36.50;101331.47;4195523;28;20106;-62
2022/09/07 06:19:35;;;;;;;2.05;1.52;;;;;;;25.49;36.28;101360.31;4188479;28;20476;-61
2022/09/07 06:21:37;;;;;;;3.33;1.00;;;;;;;25.47;36.37;101365.38;4205617;28;20172;-61
2022/09/07 06:23:42;;;;;;;1.23;1.08;;;;;;;25.46;36.65;101355.31;4201168;28;20052;-61
2022/09/07 06:25:48;;;;;;;1.77;0.90;;;;;;;25.41;36.79;101341.38;4198127;28;20370;-61
2022/09/07 06:27:49;;;;;;;1.10;1.00;;;;;;;25.48;36.73;101347.47;4194616;28;20032;-62
2022/09/07 06:29:54;;;;;;;0.70;0.65;;;;;;;25.48;36.21;101341.84;4197883;28;20090;-62
2022/09/07 06:31:55;;;;;;;2.22;1.00;;;;;;;25.47;36.56;101331.75;4197220;28;20048;-61
2022/09/07 06:33:57;;;;;;;1.35;0.90;;;;;;;25.46;36.02;101330.09;4197898;28;20070;-61
2022/09/07 06:36:01;;;;;;;2.53;0.93;;;;;;;25.45;36.80;101325.63;4197850;28;20086;-61
2022/09/07 06:38:02;;;;;;;2.50;1.00;;;;;;;25.44;36.75;101316.41;4197918;28;20032;-62
2022/09/07 06:40:04;;;;;;;2.05;0.80;;;;;;;25.38;36.56;101299.94;4197455;28;20094;-61
2022/09/07 06:42:05;;;;;;;1.90;1.10;;;;;;;25.46;36.17;101310.50;4197439;28;20079;-62
2022/09/07 06:44:07;;;;;;;0.82;0.82;;;;;;;25.31;36.29;101291.94;4198083;28;20041;-61
2022/09/07 06:46:12;;;;;;;1.60;0.90;;;;;;;25.43;36.32;101309.16;4197138;28;20102;-61
2022/09/07 06:48:13;;;;;;;;;;;;;;;25.40;36.52;101320.13;4198404;28;20028;-61
2022/09/07 06:50:16;;;;;;;1.25;0.90;;;;;;;25.48;36.94;101319.44;4197728;28;19916;-61
2022/09/07 06:52:17;;;;;;;1.48;1.27;;;;;;;25.47;36.41;101318.59;4196817;28;20094;-61
2022/09/07 06:54:19;;;;;;;1.25;0.93;;;;;;;25.46;36.10;101313.28;4194983;28;20033;-61
2022/09/07 06:56:20;;;;;;;1.05;0.82;;;;;;;25.42;35.92;101312.22;4185654;28;20090;-62
2022/09/07 06:58:23;;;;;;;1.00;0.80;;;;;;;25.43;35.78;101322.28;4197544;28;20040;-61
2022/09/07 07:00:25;;;;;;;0.80;0.80;;;;;;;25.26;36.39;101311.63;4197255;28;20118;-61
2022/09/07 07:02:26;;;;;;;1.27;0.93;;;;;;;25.42;36.66;101320.63;4197314;28;20121;-61
2022/09/07 07:04:27;;;;;;;1.00;0.90;;;;;;;25.41;36.23;101327.38;4197881;28;20475;-61
2022/09/07 07:06:33;;;;;;;1.33;1.00;;;;;;;25.24;36.16;101297.91;4197401;28;20040;-61
2022/09/07 07:08:35;;;;;;;0.70;0.70;;;;;;;25.40;35.74;101328.53;4197320;28;20036;-61
2022/09/07 07:10:38;;;;;;;1.85;0.82;;;;;;;25.37;35.66;101315.94;4197310;28;20049;-61
2022/09/07 07:12:41;;;;;;;0.82;0.80;;;;;;;25.38;36.26;101325.16;4197648;28;20036;-61
2022/09/07 07:14:43;;;;;;;1.67;1.10;;;;;;;25.38;36.83;101327.97;4197510;28;20033;-61
2022/09/07 07:16:45;;;;;;;0.88;0.88;;;;;;;25.39;36.37;101316.47;4197816;28;20126;-61
2022/09/07 07:18:51;;;;;;;0.88;0.70;;;;;;;25.39;36.24;101324.06;4196899;28;20106;-61
2022/09/07 07:20:52;;;;;;;1.77;0.85;;;;;;;25.37;35.69;101324.34;4196750;28;20044;-61
2022/09/07 07:22:54;;;;;;;1.25;1.15;;;;;;;25.35;35.65;101330.25;4197112;28;20357;-61
2022/09/07 07:24:55;;;;;;;1.08;0.82;;;;;;;25.35;36.21;101335.84;4197186;28;20053;-61
2022/09/07 07:26:56;;;;;;;1.60;1.00;;;;;;;25.34;36.77;101334.19;4197474;28;20098;-60
2022/09/07 07:28:58;;;;;;;1.00;0.70;;;;;;;25.35;36.29;101330.25;4197401;28;20054;-61
2022/09/07 07:31:03;;;;;;;1.75;0.88;;;;;;;25.35;36.36;101335.84;4197273;28;20036;-61
2022/09/07 07:33:06;;;;;;;1.42;0.90;;;;;;;25.33;35.83;101321.31;4197622;28;20048;-61
2022/09/07 07:35:09;;;;;;;1.25;0.90;;;;;;;25.15;35.75;101298.88;4198755;28;20089;-61
2022/09/07 07:37:10;;;;;;;1.23;0.90;;;;;;;25.34;36.13;101341.78;4200931;28;20044;-61
2022/09/07 07:39:11;;;;;;;1.25;0.88;;;;;;;25.32;36.83;101339.25;4200216;28;20040;-61
2022/09/07 07:41:15;;;;;;;0.82;0.73;;;;;;;25.34;36.14;101345.41;4200087;28;20081;-61
2022/09/07 07:43:16;;;;;;;1.65;1.10;;;;;;;25.34;36.18;101342.59;4200438;28;20044;-61
2022/09/07 07:45:23;;;;;;;2.50;1.10;;;;;;;25.33;36.11;101340.09;4206253;28;20036;-61
2022/09/07 07:47:25;;;;;;;0.90;0.90;;;;;;;25.31;35.85;101326.38;4204123;28;20181;-62
2022/09/07 07:49:27;;;;;;;1.08;0.98;;;;;;;25.32;35.99;101330.03;4200032;28;20545;-62
2022/09/07 07:51:28;;;;;;;0.93;0.80;;;;;;;25.31;36.73;101332.00;4212083;28;20553;-61
2022/09/07 07:53:32;;;;;;;1.15;0.95;;;;;;;25.32;36.07;101322.44;4206615;28;20541;-60
2022/09/07 07:55:36;;;;;;;1.15;0.70;;;;;;;25.31;36.04;101332.00;4200361;28;20036;-62
2022/09/07 07:57:37;;;;;;;0.70;0.70;;;;;;;25.28;36.07;101326.97;4200046;28;20032;-61
2022/09/07 07:59:38;;;;;;;0.70;0.70;;;;;;;25.27;35.83;101327.28;4199570;28;20040;-61
2022/09/07 08:01:39;;;;;;;1.50;0.80;;;;;;;25.28;36.24;101318.56;4196221;28;20729;-60
2022/09/07 08:03:43;;;;;;;0.80;0.70;;;;;;;25.20;36.43;101308.06;4197055;28;20033;-61
2022/09/07 08:05:44;;;;;;;1.42;0.57;;;;;;;25.29;36.52;101314.66;4194355;28;20028;-60
2022/09/07 08:07:46;;;;;;;4.07;0.88;;;;;;;25.26;36.01;101323.66;4200275;28;20033;-60
2022/09/07 08:09:48;;;;;;;0.80;0.55;;;;;;;25.28;36.05;101324.19;4200146;28;20090;-60
2022/09/07 08:11:49;;;;;;;0.70;0.70;;;;;;;25.27;36.11;101341.28;4194010;28;20036;-60
2022/09/07 08:13:51;;;;;;;1.08;0.98;;;;;;;25.26;36.37;101329.25;4197483;28;20094;-60
2022/09/07 08:15:59;;;;;;;0.88;0.70;;;;;;;25.26;36.58;101334.88;4215104;28;20040;-60
2022/09/07 08:18:01;;;;;;;1.17;1.00;;;;;;;25.24;36.42;101325.91;4214729;28;20040;-60
2022/09/07 08:20:05;;;;;;;0.82;0.60;;;;;;;25.21;36.24;101318.13;4191128;28;20546;-61
2022/09/07 08:22:08;;;;;;;0.93;0.77;;;;;;;25.19;35.97;101314.78;4197771;28;20508;-60
2022/09/07 08:24:09;;;;;;;0.90;0.80;;;;;;;25.25;35.76;101330.41;4204366;28;20036;-61
2022/09/07 08:26:11;;;;;;;0.93;0.70;;;;;;;25.25;36.41;101321.16;4199668;28;20044;-60
2022/09/07 08:28:12;;;;;;;0.75;0.75;;;;;;;25.26;36.46;101322.84;4212793;28;20032;-60
2022/09/07 08:30:13;;;;;;;1.42;0.80;;;;;;;25.25;36.34;101321.16;4214010;28;20097;-60
2022/09/07 08:32:17;;;;;;;1.00;0.80;;;;;;;25.25;35.94;101312.78;4213716;28;20039;-60
2022/09/07 08:34:21;;;;;;;1.83;0.70;;;;;;;25.23;35.63;101324.25;4214808;28;20093;-60
2022/09/07 08:36:26;;;;;;;0.70;0.70;;;;;;;25.24;36.10;101320.31;4210403;28;20188;-60
2022/09/07 08:38:31;;;;;;;1.10;0.75;;;;;;;25.23;36.53;101327.06;4214994;28;20105;-60
2022/09/07 08:40:36;;;;;;;0.90;0.75;;;;;;;25.25;35.96;101332.38;4216193;28;20035;-60
2022/09/07 08:43:05;;;;;;;1.65;0.70;;;;;;;25.23;35.98;101338.25;4208879;28;20036;-61
2022/09/07 08:45:20;;;;;;;1.52;0.80;;;;;;;25.19;36.00;101322.34;4199471;28;20044;-61
2022/09/07 08:47:40;;;;;;;2.22;0.93;;;;;;;25.22;35.62;101328.19;4209116;28;20048;-61
2022/09/07 08:50:05;;;;;;;0.88;0.75;;;;;;;25.22;36.40;101333.81;4218385;28;20536;-59
2022/09/07 08:52:25;;;;;;;1.27;0.82;;;;;;;25.22;36.25;101322.59;4204037;28;20044;-61
2022/09/07 08:54:29;;;;;;;0.63;0.63;;;;;;;25.17;36.12;101319.03;4213735;28;20040;-61
2022/09/07 08:56:37;;;;;;;0.98;0.60;;;;;;;25.22;35.75;101333.81;4214870;28;20053;-61
2022/09/07 08:58:45;;;;;;;2.03;0.70;;;;;;;25.06;35.84;101307.09;4201302;28;20082;-60
2022/09/07 09:00:50;;;;;;;0.77;0.68;;;;;;;25.19;35.84;101326.00;4201638;28;20032;-61
2022/09/07 09:02:51;;;;;;;0.95;0.80;;;;;;;25.14;36.61;101319.63;4213666;28;20085;-61
2022/09/07 09:04:52;;;;;;;1.13;0.77;;;;;;;25.22;36.05;101330.16;4213592;28;20058;-61
2022/09/07 09:07:23;;;;;;;0.82;0.60;;;;;;;25.20;36.32;101327.69;4206998;28;20040;-61
2022/09/07 09:09:33;;;;;;;0.80;0.60;;;;;;;25.19;35.92;101337.19;4211035;28;20048;-61
2022/09/07 09:11:43;;;;;;;0.90;0.68;;;;;;;25.20;35.57;101322.06;4208114;28;20437;-61
2022/09/07 09:14:17;;;;;;;1.40;0.60;;;;;;;25.17;36.17;101324.63;4198428;28;20053;-61
2022/09/07 09:16:41;;;;;;;0.65;0.63;;;;;;;25.18;36.42;101320.69;4206130;28;20093;-61
2022/09/07 09:19:05;;;;;;;1.17;0.80;;;;;;;25.20;36.20;101324.88;4214347;28;20029;-61
2022/09/07 09:21:13;;;;;;;0.80;0.80;;;;;;;25.20;36.11;101324.00;4213562;28;20051;-61
2022/09/07 09:23:22;;;;;;;0.77;0.65;;;;;;;25.18;35.86;101327.13;4208397;28;20387;-61
2022/09/07 09:25:32;;;;;;;0.90;0.90;;;;;;;25.16;36.15;101340.63;4211290;28;20078;-60
2022/09/07 09:27:33;;;;;;;0.95;0.70;;;;;;;25.16;36.50;101340.63;4214224;28;20565;-61
2022/09/07 09:29:35;;;;;;;2.05;1.05;;;;;;;25.17;36.17;101336.66;4213281;28;20037;-61
2022/09/07 09:31:36;;;;;;;1.00;0.80;;;;;;;25.17;36.12;101347.88;4211018;28;20036;-61
2022/09/07 09:33:38;;;;;;;1.25;0.80;;;;;;;25.18;35.65;101354.31;4212770;28;20097;-61
2022/09/07 09:35:40;;;;;;;0.90;0.88;;;;;;;25.16;35.81;101351.81;4215590;28;20381;-61
2022/09/07 09:37:43;;;;;;;1.15;0.98;;;;;;;25.13;36.26;101349.59;4213152;28;20040;-61
2022/09/07 09:39:45;;;;;;;0.70;0.70;;;;;;;25.15;36.83;101350.13;4213075;28;20437;-61
2022/09/07 09:41:47;;;;;;;1.70;0.80;;;;;;;25.16;36.33;101353.78;4199227;28;20047;-61
2022/09/07 09:43:56;;;;;;;0.80;0.80;;;;;;;25.08;36.16;101333.69;4205958;28;20048;-61
2022/09/07 09:45:57;;;;;;;0.77;0.77;;;;;;;25.14;35.79;101348.47;4197411;28;20040;-60
2022/09/07 09:48:01;;;;;;;0.88;0.68;;;;;;;25.12;36.16;101350.75;4207007;28;20434;-61